sensor_id;sensor_type;location;lat;lon;timestamp;pressure;altitude;pressure_sealevel;temperature;humidity
6431;BME280;3248;42.772;23.246;2022-08-19T13:25:42;45865.88;;;-138.78;31.95
6431;BME280;3248;42.772;23.246;2022-08-19T13:28:08;45877.78;;;-138.78;30.28
6431;BME280;3248;42.772;23.246;2022-08-19T13:30:35;45865.88;;;-138.78;30.86
6431;BME280;3248;42.772;23.246;2022-08-19T13:33:19;45861.91;;;-138.78;32.58
6431;BME280;3248;42.772;23.246;2022-08-19T13:35:49;45865.88;;;-138.78;30.14
6431;BME280;3248;42.772;23.246;2022-08-19T13:38:18;45875.81;;;-138.78;30.40
6431;BME280;3248;42.772;23.246;2022-08-19T13:40:48;45861.91;;;-138.78;29.88
6431;BME280;3248;42.772;23.246;2022-08-19T13:43:14;45867.84;;;-138.78;30.00
6431;BME280;3248;42.772;23.246;2022-08-19T13:45:42;45867.84;;;-138.78;29.76
6431;BME280;3248;42.772;23.246;2022-08-19T13:48:09;45865.88;;;-138.78;30.04
6431;BME280;3248;42.772;23.246;2022-08-19T13:50:40;45865.88;;;-138.78;30.26
6431;BME280;3248;42.772;23.246;2022-08-19T13:53:08;45865.88;;;-138.78;29.91
6431;BME280;3248;42.772;23.246;2022-08-19T13:55:37;45865.88;;;-138.78;30.31
6431;BME280;3248;42.772;23.246;2022-08-19T13:58:06;45865.88;;;-138.78;30.54
6431;BME280;3248;42.772;23.246;2022-08-19T14:00:35;45867.84;;;-138.78;30.91
6431;BME280;3248;42.772;23.246;2022-08-19T14:03:02;45875.81;;;-138.78;30.07
6431;BME280;3248;42.772;23.246;2022-08-19T14:05:30;45865.88;;;-138.78;30.67
6431;BME280;3248;42.772;23.246;2022-08-19T14:07:58;45877.78;;;-138.78;30.81
6431;BME280;3248;42.772;23.246;2022-08-19T14:10:26;45865.88;;;-138.78;31.23
6431;BME280;3248;42.772;23.246;2022-08-19T14:12:54;45875.81;;;-138.78;30.85
6431;BME280;3248;42.772;23.246;2022-08-19T14:15:25;45877.78;;;-138.78;30.36
6431;BME280;3248;42.772;23.246;2022-08-19T14:17:52;45867.84;;;-138.78;30.06
6431;BME280;3248;42.772;23.246;2022-08-19T14:20:20;45875.81;;;-138.78;30.29
6431;BME280;3248;42.772;23.246;2022-08-19T14:22:48;45867.84;;;-138.78;31.47
6431;BME280;3248;42.772;23.246;2022-08-19T14:25:18;45865.88;;;-138.78;30.62
6431;BME280;3248;42.772;23.246;2022-08-19T14:27:45;45861.91;;;-138.78;31.17
6431;BME280;3248;42.772;23.246;2022-08-19T14:30:17;45867.84;;;-138.78;30.29
6431;BME280;3248;42.772;23.246;2022-08-19T14:32:47;45867.84;;;-138.78;30.91
6431;BME280;3248;42.772;23.246;2022-08-19T14:35:15;45877.78;;;-138.78;30.34
6431;BME280;3248;42.772;23.246;2022-08-19T14:37:44;45877.78;;;-138.78;30.15
6431;BME280;3248;42.772;23.246;2022-08-19T14:40:12;45877.78;;;-138.78;29.71
6431;BME280;3248;42.772;23.246;2022-08-19T14:42:40;45863.88;;;-138.78;29.93
6431;BME280;3248;42.772;23.246;2022-08-19T14:45:08;45865.88;;;-138.78;30.38
6431;BME280;3248;42.772;23.246;2022-08-19T14:47:35;45867.84;;;-138.78;30.28
6431;BME280;3248;42.772;23.246;2022-08-19T14:50:06;45865.88;;;-138.78;31.00
6431;BME280;3248;42.772;23.246;2022-08-19T14:52:33;45877.78;;;-138.78;30.39
6431;BME280;3248;42.772;23.246;2022-08-19T14:55:00;45865.88;;;-138.78;31.12
6431;BME280;3248;42.772;23.246;2022-08-19T14:57:27;45877.78;;;-138.78;31.00
6431;BME280;3248;42.772;23.246;2022-08-19T14:59:54;45865.88;;;-138.78;30.72
6431;BME280;3248;42.772;23.246;2022-08-19T15:02:22;45877.78;;;-138.78;29.96
6431;BME280;3248;42.772;23.246;2022-08-19T15:04:49;45861.91;;;-138.78;30.93
6431;BME280;3248;42.772;23.246;2022-08-19T15:07:18;45877.78;;;-138.78;31.63
6431;BME280;3248;42.772;23.246;2022-08-19T15:09:49;45877.78;;;-138.78;31.42
6431;BME280;3248;42.772;23.246;2022-08-19T15:12:16;45865.88;;;-138.78;31.06
6431;BME280;3248;42.772;23.246;2022-08-19T15:14:42;45865.88;;;-138.78;31.28
6431;BME280;3248;42.772;23.246;2022-08-19T15:17:09;45863.88;;;-138.78;31.55
6431;BME280;3248;42.772;23.246;2022-08-19T15:19:36;45865.88;;;-138.78;32.08
6431;BME280;3248;42.772;23.246;2022-08-19T15:22:03;45877.78;;;-138.78;31.02
6431;BME280;3248;42.772;23.246;2022-08-19T15:24:31;45877.78;;;-138.78;32.05
6431;BME280;3248;42.772;23.246;2022-08-19T15:26:58;45867.84;;;-138.78;32.75
6431;BME280;3248;42.772;23.246;2022-08-19T15:29:25;45865.88;;;-138.78;31.59
6431;BME280;3248;42.772;23.246;2022-08-19T15:31:53;45877.78;;;-138.78;31.54
6431;BME280;3248;42.772;23.246;2022-08-19T15:34:22;45875.81;;;-138.78;30.97
6431;BME280;3248;42.772;23.246;2022-08-19T15:36:50;45867.84;;;-138.78;32.19
6431;BME280;3248;42.772;23.246;2022-08-19T15:39:16;45863.88;;;-138.78;32.77
6431;BME280;3248;42.772;23.246;2022-08-19T15:41:45;45867.84;;;-138.78;33.13
6431;BME280;3248;42.772;23.246;2022-08-19T15:44:17;45875.81;;;-138.78;33.80
6431;BME280;3248;42.772;23.246;2022-08-19T15:46:46;45877.78;;;-138.78;33.83
6431;BME280;3248;42.772;23.246;2022-08-19T15:49:15;45865.88;;;-138.78;33.79
6431;BME280;3248;42.772;23.246;2022-08-19T15:51:45;45863.88;;;-138.78;33.69
6431;BME280;3248;42.772;23.246;2022-08-19T15:54:15;45865.88;;;-138.78;32.58
6431;BME280;3248;42.772;23.246;2022-08-19T15:56:42;45867.84;;;-138.78;32.96
6431;BME280;3248;42.772;23.246;2022-08-19T15:59:27;45867.84;;;-138.78;33.12
6431;BME280;3248;42.772;23.246;2022-08-19T16:02:12;45865.88;;;-138.78;34.01
6431;BME280;3248;42.772;23.246;2022-08-19T16:04:56;45867.84;;;-138.78;33.84
6431;BME280;3248;42.772;23.246;2022-08-19T16:07:41;45865.88;;;-138.78;34.06
6431;BME280;3248;42.772;23.246;2022-08-19T16:10:08;45875.81;;;-138.78;34.27
6431;BME280;3248;42.772;23.246;2022-08-19T16:12:35;45865.88;;;-138.78;33.07
6431;BME280;3248;42.772;23.246;2022-08-19T16:15:05;45877.78;;;-138.78;33.02
6431;BME280;3248;42.772;23.246;2022-08-19T16:17:32;45877.78;;;-138.78;33.26
6431;BME280;3248;42.772;23.246;2022-08-19T16:19:59;45877.78;;;-138.78;33.54
6431;BME280;3248;42.772;23.246;2022-08-19T16:22:28;45865.88;;;-138.78;34.09
6431;BME280;3248;42.772;23.246;2022-08-19T16:24:55;45877.78;;;-138.78;34.39
6431;BME280;3248;42.772;23.246;2022-08-19T16:27:22;45877.78;;;-138.78;34.37
6431;BME280;3248;42.772;23.246;2022-08-19T16:29:48;45867.84;;;-138.78;34.55
6431;BME280;3248;42.772;23.246;2022-08-19T16:32:17;45865.88;;;-138.78;34.53
6431;BME280;3248;42.772;23.246;2022-08-19T16:34:45;45867.84;;;-138.78;34.81
6431;BME280;3248;42.772;23.246;2022-08-19T16:37:12;45867.84;;;-138.78;35.38
6431;BME280;3248;42.772;23.246;2022-08-19T16:39:39;45875.81;;;-138.78;35.25
6431;BME280;3248;42.772;23.246;2022-08-19T16:42:08;45877.78;;;-138.78;34.67
6431;BME280;3248;42.772;23.246;2022-08-19T16:44:35;45877.78;;;-138.78;35.08
6431;BME280;3248;42.772;23.246;2022-08-19T16:47:03;45877.78;;;-138.78;35.28
6431;BME280;3248;42.772;23.246;2022-08-19T16:49:32;45877.78;;;-138.78;35.33
6431;BME280;3248;42.772;23.246;2022-08-19T16:51:59;45877.78;;;-138.78;34.99
6431;BME280;3248;42.772;23.246;2022-08-19T16:54:27;45865.88;;;-138.78;35.25
6431;BME280;3248;42.772;23.246;2022-08-19T16:56:53;45863.88;;;-138.78;35.22
6431;BME280;3248;42.772;23.246;2022-08-19T16:59:20;45877.78;;;-138.78;35.19
6431;BME280;3248;42.772;23.246;2022-08-19T17:01:48;45865.88;;;-138.78;35.59
6431;BME280;3248;42.772;23.246;2022-08-19T17:04:16;45867.84;;;-138.78;35.96
6431;BME280;3248;42.772;23.246;2022-08-19T17:06:44;45877.78;;;-138.78;36.18
6431;BME280;3248;42.772;23.246;2022-08-19T17:09:11;45877.78;;;-138.78;35.94
6431;BME280;3248;42.772;23.246;2022-08-19T17:11:40;45877.78;;;-138.78;36.21
6431;BME280;3248;42.772;23.246;2022-08-19T17:14:07;45877.78;;;-138.78;36.26
6431;BME280;3248;42.772;23.246;2022-08-19T17:16:35;45877.78;;;-138.78;36.79
6431;BME280;3248;42.772;23.246;2022-08-19T17:19:04;45867.84;;;-138.78;37.21
6431;BME280;3248;42.772;23.246;2022-08-19T17:21:33;45867.84;;;-138.78;37.36
6431;BME280;3248;42.772;23.246;2022-08-19T17:24:04;45877.78;;;-138.78;37.46
6431;BME280;3248;42.772;23.246;2022-08-19T17:26:31;45865.88;;;-138.78;37.99
6431;BME280;3248;42.772;23.246;2022-08-19T17:28:58;45877.78;;;-138.78;38.31
6431;BME280;3248;42.772;23.246;2022-08-19T17:31:27;45877.78;;;-138.78;38.40
6431;BME280;3248;42.772;23.246;2022-08-19T17:33:54;45867.84;;;-138.78;38.51
6431;BME280;3248;42.772;23.246;2022-08-19T17:36:24;45877.78;;;-138.78;38.70
6431;BME280;3248;42.772;23.246;2022-08-19T17:38:53;45877.78;;;-138.78;39.16
6431;BME280;3248;42.772;23.246;2022-08-19T17:41:22;45877.78;;;-138.78;39.40
6431;BME280;3248;42.772;23.246;2022-08-19T17:43:49;45867.84;;;-138.78;39.32
6431;BME280;3248;42.772;23.246;2022-08-19T17:46:16;45877.78;;;-138.78;39.53
6431;BME280;3248;42.772;23.246;2022-08-19T17:48:45;45877.78;;;-138.78;39.46
6431;BME280;3248;42.772;23.246;2022-08-19T17:51:15;45877.78;;;-138.78;39.46
6431;BME280;3248;42.772;23.246;2022-08-19T17:53:43;45877.78;;;-138.78;39.81
6431;BME280;3248;42.772;23.246;2022-08-19T17:56:10;45877.78;;;-138.78;39.80
6431;BME280;3248;42.772;23.246;2022-08-19T17:58:40;45877.78;;;-138.78;40.09
6431;BME280;3248;42.772;23.246;2022-08-19T18:01:08;45865.88;;;-138.78;39.66
6431;BME280;3248;42.772;23.246;2022-08-19T18:03:36;45877.78;;;-138.78;39.68
6431;BME280;3248;42.772;23.246;2022-08-19T18:06:03;45877.78;;;-138.78;39.74
6431;BME280;3248;42.772;23.246;2022-08-19T18:08:29;45867.84;;;-138.78;39.99
6431;BME280;3248;42.772;23.246;2022-08-19T18:10:57;45877.78;;;-138.78;40.10
6431;BME280;3248;42.772;23.246;2022-08-19T18:13:24;45877.78;;;-138.78;39.96
6431;BME280;3248;42.772;23.246;2022-08-19T18:15:52;45877.78;;;-138.78;40.00
6431;BME280;3248;42.772;23.246;2022-08-19T18:18:18;45867.84;;;-138.78;40.15
6431;BME280;3248;42.772;23.246;2022-08-19T18:20:45;45865.88;;;-138.78;41.89
6431;BME280;3248;42.772;23.246;2022-08-19T18:23:12;45877.78;;;-138.78;43.19
6431;BME280;3248;42.772;23.246;2022-08-19T18:25:39;45865.88;;;-138.78;43.98
6431;BME280;3248;42.772;23.246;2022-08-19T18:28:05;45877.78;;;-138.78;44.13
6431;BME280;3248;42.772;23.246;2022-08-19T18:30:32;45877.78;;;-138.78;44.30
6431;BME280;3248;42.772;23.246;2022-08-19T18:33:02;45877.78;;;-138.78;45.10
6431;BME280;3248;42.772;23.246;2022-08-19T18:35:31;45877.78;;;-138.78;46.71
6431;BME280;3248;42.772;23.246;2022-08-19T18:37:59;45867.84;;;-138.78;47.58
6431;BME280;3248;42.772;23.246;2022-08-19T18:40:46;45865.88;;;-138.78;46.57
6431;BME280;3248;42.772;23.246;2022-08-19T18:43:31;45877.78;;;-138.78;47.31
6431;BME280;3248;42.772;23.246;2022-08-19T18:46:15;45865.88;;;-138.78;46.59
6431;BME280;3248;42.772;23.246;2022-08-19T18:49:01;45877.78;;;-138.78;46.26
6431;BME280;3248;42.772;23.246;2022-08-19T18:51:32;45877.78;;;-138.78;46.44
6431;BME280;3248;42.772;23.246;2022-08-19T18:53:58;45877.78;;;-138.78;46.62
6431;BME280;3248;42.772;23.246;2022-08-19T18:56:27;45877.78;;;-138.78;46.57
6431;BME280;3248;42.772;23.246;2022-08-19T18:58:57;45877.78;;;-138.78;46.59
6431;BME280;3248;42.772;23.246;2022-08-19T19:01:27;45877.78;;;-138.78;45.55
6431;BME280;3248;42.772;23.246;2022-08-19T19:03:58;45877.78;;;-138.78;45.39
6431;BME280;3248;42.772;23.246;2022-08-19T19:06:29;45877.78;;;-138.78;45.56
6431;BME280;3248;42.772;23.246;2022-08-19T19:08:59;45867.84;;;-138.78;45.55
6431;BME280;3248;42.772;23.246;2022-08-19T19:11:27;45865.88;;;-138.78;44.93
